Time;durP1;ratioP1;P1;durP2;ratioP2;P2;SDS_P1;SDS_P2;PMS_P1;PMS_P2;Temp;Humidity;BMP_temperature;BMP_pressure;BME280_temperature;BME280_humidity;BME280_pressure;Samples;Min_cycle;Max_cycle;Signal;HPM_P1;HPM_P2
2023/04/28 00:00:04;;;;;;;6.67;5.70;;;5.70;99.90;;;;;;5069775;28;21266;-76
2023/04/28 00:02:31;;;;;;;8.70;5.40;;;5.70;99.90;;;;;;5065914;28;21005;-76
2023/04/28 00:04:58;;;;;;;7.07;6.00;;;5.70;99.90;;;;;;5065794;28;21326;-79
2023/04/28 00:07:25;;;;;;;6.60;5.70;;;5.70;99.90;;;;;;5066239;28;20496;-76
2023/04/28 00:09:52;;;;;;;5.90;5.40;;;5.70;99.90;;;;;;5068872;28;20501;-76
2023/04/28 00:12:19;;;;;;;7.67;6.33;;;5.60;99.90;;;;;;5063823;28;20440;-75
2023/04/28 00:14:46;;;;;;;6.60;5.60;;;5.60;99.90;;;;;;5067261;28;20540;-76
2023/04/28 00:17:14;;;;;;;8.47;6.37;;;5.50;99.90;;;;;;5068986;28;20444;-75
2023/04/28 00:19:41;;;;;;;7.23;6.53;;;5.60;99.90;;;;;;5067306;28;20515;-76
2023/04/28 00:22:08;;;;;;;7.27;5.00;;;5.50;99.90;;;;;;5066995;28;20978;-77
2023/04/28 00:24:35;;;;;;;8.10;6.30;;;5.50;99.90;;;;;;5069589;28;20506;-79
2023/04/28 00:27:02;;;;;;;6.10;5.40;;;5.40;99.90;;;;;;5063161;28;20498;-78
2023/04/28 00:29:29;;;;;;;6.23;5.10;;;5.40;99.90;;;;;;5058787;28;20506;-78
2023/04/28 00:31:56;;;;;;;5.13;4.63;;;5.30;99.90;;;;;;5059015;28;20468;-78
2023/04/28 00:34:25;;;;;;;6.47;5.87;;;5.30;99.90;;;;;;5059729;28;20480;-79
2023/04/28 00:36:52;;;;;;;6.90;5.50;;;5.30;99.90;;;;;;5061947;28;20464;-77
2023/04/28 00:39:19;;;;;;;6.73;5.87;;;5.30;99.90;;;;;;5065567;28;20501;-75
2023/04/28 00:41:46;;;;;;;10.50;7.63;;;5.40;99.90;;;;;;5074158;28;20962;-76
2023/04/28 00:44:13;;;;;;;7.70;6.63;;;5.40;99.90;;;;;;5073155;28;20433;-77
2023/04/28 00:46:41;;;;;;;12.30;6.70;;;5.40;99.90;;;;;;5079391;28;20498;-75
2023/04/28 00:49:08;;;;;;;6.03;5.30;;;5.50;99.90;;;;;;5069283;28;20466;-75
2023/04/28 00:51:36;;;;;;;11.00;7.37;;;5.60;99.90;;;;;;5074124;28;20880;-75
2023/04/28 00:54:05;;;;;;;6.40;5.80;;;5.60;99.90;;;;;;5061183;28;20958;-76
2023/04/28 00:56:33;;;;;;;6.00;5.50;;;5.60;99.90;;;;;;5069152;28;20448;-76
2023/04/28 00:59:00;;;;;;;7.30;6.37;;;5.60;99.90;;;;;;5066409;28;20461;-79
2023/04/28 01:01:27;;;;;;;8.57;6.10;;;5.50;99.90;;;;;;5064552;28;21029;-76
2023/04/28 01:03:54;;;;;;;7.93;7.13;;;5.50;99.90;;;;;;5064568;28;20479;-76
2023/04/28 01:06:22;;;;;;;8.23;7.40;;;5.40;99.90;;;;;;5067892;28;20448;-79
2023/04/28 01:08:50;;;;;;;9.23;6.23;;;5.40;99.90;;;;;;5067608;28;20542;-78
2023/04/28 01:11:17;;;;;;;14.17;7.30;;;5.40;99.90;;;;;;5066066;28;20460;-79
2023/04/28 01:13:44;;;;;;;12.77;7.63;;;5.30;99.90;;;;;;5066267;28;20498;-75
2023/04/28 01:16:11;;;;;;;8.10;6.57;;;5.30;99.90;;;;;;5067367;28;20437;-76
2023/04/28 01:18:42;;;;;;;7.50;6.80;;;5.30;99.90;;;;;;5063071;28;20518;-77
2023/04/28 01:21:09;;;;;;;10.23;6.87;;;5.30;99.90;;;;;;5052728;28;20950;-76
2023/04/28 01:23:36;;;;;;;15.17;7.90;;;5.30;99.90;;;;;;5055197;28;20437;-80
2023/04/28 01:26:05;;;;;;;7.30;6.70;;;5.30;99.90;;;;;;5066396;28;20915;-76
2023/04/28 01:28:32;;;;;;;7.90;6.57;;;5.30;99.90;;;;;;5059561;28;20527;-78
2023/04/28 01:30:59;;;;;;;8.47;7.67;;;5.30;99.90;;;;;;5058082;28;20452;-76
2023/04/28 01:33:25;;;;;;;7.57;6.97;;;5.30;99.90;;;;;;5057469;28;20468;-75
2023/04/28 01:35:57;;;;;;;7.63;6.00;;;5.30;99.90;;;;;;5066133;28;20843;-79
2023/04/28 01:38:24;;;;;;;8.30;7.57;;;5.30;99.90;;;;;;5064836;28;20932;-76
2023/04/28 01:40:51;;;;;;;8.90;6.50;;;5.20;99.90;;;;;;5065122;28;20472;-76
2023/04/28 01:43:20;;;;;;;7.83;7.13;;;5.20;99.90;;;;;;5064912;28;21187;-78
2023/04/28 01:45:47;;;;;;;7.63;6.47;;;5.20;99.90;;;;;;5067443;28;20935;-75
2023/04/28 01:48:14;;;;;;;9.00;7.63;;;5.20;99.90;;;;;;5062874;28;20543;-77
2023/04/28 01:50:41;;;;;;;10.23;7.50;;;5.20;99.90;;;;;;5057243;28;20475;-76
2023/04/28 01:53:07;;;;;;;7.40;6.40;;;5.30;99.90;;;;;;5055363;28;20448;-75
2023/04/28 01:55:34;;;;;;;9.67;6.80;;;5.20;99.90;;;;;;5061480;28;20570;-76
2023/04/28 01:58:01;;;;;;;8.60;7.70;;;5.20;99.90;;;;;;5059464;28;20467;-75
2023/04/28 02:00:30;;;;;;;12.10;8.73;;;5.30;99.90;;;;;;5058897;28;20441;-76
2023/04/28 02:02:57;;;;;;;9.83;7.97;;;5.50;99.90;;;;;;5066410;28;20489;-77
2023/04/28 02:05:24;;;;;;;9.27;8.37;;;5.50;99.90;;;;;;5061127;28;20452;-76
2023/04/28 02:07:51;;;;;;;15.27;7.80;;;5.40;99.90;;;;;;5066588;28;20859;-76
2023/04/28 02:10:18;;;;;;;11.03;9.00;;;5.30;99.90;;;;;;5061214;28;20934;-79
2023/04/28 02:12:45;;;;;;;8.00;7.20;;;5.20;99.90;;;;;;5065795;28;20490;-77
2023/04/28 02:15:12;;;;;;;9.07;8.30;;;5.20;99.90;;;;;;5064836;28;20487;-78
2023/04/28 02:17:41;;;;;;;11.20;8.03;;;5.10;99.90;;;;;;5063212;28;20468;-78
2023/04/28 02:20:09;;;;;;;7.33;6.60;;;5.20;99.90;;;;;;5054937;28;20502;-78
2023/04/28 02:22:36;;;;;;;10.83;8.07;;;5.10;99.90;;;;;;5055055;28;20457;-75
2023/04/28 02:25:03;;;;;;;8.97;6.77;;;5.20;99.90;;;;;;5053037;28;20465;-77
2023/04/28 02:27:30;;;;;;;8.37;7.50;;;5.10;99.90;;;;;;5066436;28;20505;-76
2023/04/28 02:29:57;;;;;;;9.50;7.70;;;5.10;99.90;;;;;;5058168;28;20527;-77
2023/04/28 02:32:24;;;;;;;7.30;6.57;;;5.10;99.90;;;;;;5061198;28;20444;-77
2023/04/28 02:34:55;;;;;;;9.37;6.70;;;5.10;99.90;;;;;;5051096;28;20488;-78
2023/04/28 02:37:22;;;;;;;8.63;7.90;;;5.10;99.90;;;;;;5064854;28;20464;-75
2023/04/28 02:39:49;;;;;;;8.60;7.13;;;5.20;99.90;;;;;;5063758;28;20438;-76
2023/04/28 02:42:16;;;;;;;10.33;7.07;;;5.20;99.90;;;;;;5058402;28;20452;-76
2023/04/28 02:44:43;;;;;;;7.77;7.00;;;5.20;99.90;;;;;;5065613;28;20456;-77
2023/04/28 02:47:10;;;;;;;6.23;5.63;;;5.20;99.90;;;;;;5052561;28;20529;-75
2023/04/28 02:49:37;;;;;;;14.10;7.13;;;5.20;99.90;;;;;;5059793;28;20440;-79
2023/04/28 02:52:06;;;;;;;9.03;7.17;;;5.20;99.90;;;;;;5050103;28;20446;-75
2023/04/28 02:54:35;;;;;;;7.57;6.93;;;5.20;99.90;;;;;;5063797;28;21145;-76
2023/04/28 02:57:03;;;;;;;6.80;6.07;;;5.30;99.90;;;;;;5057043;28;20449;-77
2023/04/28 02:59:30;;;;;;;6.10;5.60;;;5.30;99.90;;;;;;5064061;28;20492;-77
2023/04/28 03:01:57;;;;;;;6.80;6.10;;;5.40;99.90;;;;;;5064668;28;20428;-76
2023/04/28 03:04:24;;;;;;;7.03;6.00;;;5.40;99.90;;;;;;5057913;28;20464;-76
2023/04/28 03:06:51;;;;;;;6.70;5.80;;;5.50;99.90;;;;;;5061296;28;20533;-76
2023/04/28 03:09:21;;;;;;;6.60;5.93;;;5.60;99.90;;;;;;5063957;28;20529;-76
2023/04/28 03:11:48;;;;;;;5.60;5.10;;;5.60;99.90;;;;;;5063853;28;20439;-77
2023/04/28 03:14:15;;;;;;;12.33;5.70;;;5.60;99.90;;;;;;5058691;28;20555;-76
2023/04/28 03:16:42;;;;;;;5.90;5.30;;;5.70;99.90;;;;;;5066343;28;20484;-78
2023/04/28 03:19:09;;;;;;;7.70;6.97;;;5.70;99.90;;;;;;5060531;28;20444;-79
2023/04/28 03:21:36;;;;;;;7.80;7.10;;;5.70;99.90;;;;;;5058588;28;20445;-76
2023/04/28 03:24:03;;;;;;;9.90;8.73;;;5.80;99.90;;;;;;5061299;28;20468;-76
2023/04/28 03:26:31;;;;;;;13.00;8.47;;;5.70;99.90;;;;;;5059230;28;20530;-76
2023/04/28 03:28:58;;;;;;;10.40;6.90;;;5.60;99.90;;;;;;5055166;28;20446;-76
2023/04/28 03:31:25;;;;;;;9.40;6.53;;;5.50;99.90;;;;;;5051359;28;20503;-78
2023/04/28 03:33:52;;;;;;;6.80;6.10;;;5.40;99.90;;;;;;5062330;28;20537;-75
2023/04/28 03:36:19;;;;;;;9.87;6.10;;;5.50;99.90;;;;;;5055330;28;20472;-75
2023/04/28 03:38:46;;;;;;;11.60;7.23;;;5.40;99.90;;;;;;5057544;28;20503;-76
2023/04/28 03:41:13;;;;;;;6.53;5.93;;;5.50;99.90;;;;;;5057347;28;20463;-76
2023/04/28 03:43:41;;;;;;;7.00;6.30;;;5.50;99.90;;;;;;5059173;28;20595;-78
2023/04/28 03:46:08;;;;;;;11.50;7.33;;;5.50;99.90;;;;;;5065601;28;21147;-80
2023/04/28 03:48:35;;;;;;;6.53;6.03;;;5.50;99.90;;;;;;5062339;28;20472;-76
2023/04/28 03:51:02;;;;;;;8.00;6.00;;;5.50;99.90;;;;;;5061974;28;20460;-76
2023/04/28 03:53:29;;;;;;;5.80;5.23;;;5.40;99.90;;;;;;5066057;28;20525;-80
2023/04/28 03:55:56;;;;;;;7.53;6.20;;;5.20;99.90;;;;;;5068661;28;20484;-75
2023/04/28 03:58:24;;;;;;;7.07;6.37;;;5.10;99.90;;;;;;5068296;28;20432;-76
2023/04/28 04:00:53;;;;;;;6.50;6.00;;;5.10;99.90;;;;;;5062530;28;20542;-76
2023/04/28 04:03:20;;;;;;;6.87;5.73;;;5.20;99.90;;;;;;5070295;28;20501;-77
2023/04/28 04:05:47;;;;;;;7.83;5.83;;;5.20;99.90;;;;;;5075689;28;20461;-76
2023/04/28 04:08:15;;;;;;;5.97;5.57;;;5.20;99.90;;;;;;5074415;28;20489;-76
2023/04/28 04:10:42;;;;;;;6.80;6.07;;;5.20;99.90;;;;;;5059440;28;20456;-78
2023/04/28 04:13:08;;;;;;;6.03;5.53;;;5.30;99.90;;;;;;5065952;28;20441;-76
2023/04/28 04:15:36;;;;;;;6.00;5.40;;;5.40;99.90;;;;;;5062632;28;20487;-78
2023/04/28 04:18:04;;;;;;;6.80;5.83;;;5.40;99.90;;;;;;5068634;28;20513;-79
2023/04/28 04:20:31;;;;;;;10.10;7.00;;;5.50;99.90;;;;;;5068938;28;21187;-77
2023/04/28 04:22:58;;;;;;;7.83;7.10;;;5.60;99.90;;;;;;5063167;28;20503;-77
2023/04/28 04:25:25;;;;;;;7.93;6.13;;;5.60;99.90;;;;;;5069326;28;20589;-76
2023/04/28 04:27:52;;;;;;;8.03;5.90;;;5.50;99.90;;;;;;5060799;28;20440;-77
2023/04/28 04:30:19;;;;;;;7.33;5.97;;;5.60;99.90;;;;;;5063592;28;20467;-78
2023/04/28 04:32:46;;;;;;;9.50;6.60;;;5.70;99.90;;;;;;5065230;28;20436;-76
2023/04/28 04:35:15;;;;;;;6.10;5.53;;;6.00;99.90;;;;;;5068220;28;20552;-76
2023/04/28 04:37:42;;;;;;;9.67;5.53;;;6.20;99.90;;;;;;5064043;28;20463;-78
2023/04/28 04:40:11;;;;;;;8.97;6.20;;;6.30;99.90;;;;;;5065509;28;20498;-76
2023/04/28 04:42:38;;;;;;;5.60;5.10;;;6.50;99.90;;;;;;5066427;28;20436;-77
2023/04/28 04:45:06;;;;;;;6.90;6.10;;;6.60;99.90;;;;;;5065881;28;21146;-80
2023/04/28 04:47:33;;;;;;;6.10;5.50;;;6.80;99.90;;;;;;5065165;28;20960;-76
2023/04/28 04:50:00;;;;;;;5.07;4.63;;;6.70;99.90;;;;;;5068015;28;20448;-76
2023/04/28 04:52:28;;;;;;;7.70;5.30;;;6.70;99.90;;;;;;5065568;28;20444;-76
2023/04/28 04:54:56;;;;;;;4.93;4.50;;;6.60;99.90;;;;;;5062307;28;20860;-76
2023/04/28 04:57:23;;;;;;;4.73;3.90;;;6.60;99.90;;;;;;5065148;28;20519;-76
2023/04/28 04:59:50;;;;;;;4.07;3.43;;;6.70;99.90;;;;;;5066913;28;20456;-77
2023/04/28 05:02:16;;;;;;;5.43;4.93;;;6.60;99.90;;;;;;5064530;28;20432;-76
2023/04/28 05:04:43;;;;;;;5.50;5.07;;;6.60;99.90;;;;;;5066139;28;20534;-76
2023/04/28 05:07:11;;;;;;;8.87;5.50;;;6.50;99.90;;;;;;5064355;28;20861;-75
2023/04/28 05:09:40;;;;;;;7.27;5.63;;;6.50;99.90;;;;;;5065133;28;20460;-75
2023/04/28 05:12:07;;;;;;;7.40;6.10;;;6.70;99.90;;;;;;5071149;28;20461;-75
2023/04/28 05:14:34;;;;;;;7.33;5.50;;;6.70;99.90;;;;;;5067075;28;20476;-76
2023/04/28 05:17:01;;;;;;;6.73;5.77;;;6.70;99.90;;;;;;5065403;28;21086;-77
2023/04/28 05:19:28;;;;;;;8.10;6.77;;;6.60;99.90;;;;;;5064879;28;20990;-78
2023/04/28 05:21:55;;;;;;;7.40;6.33;;;6.80;99.90;;;;;;5066832;28;20970;-76
2023/04/28 05:24:23;;;;;;;6.37;5.77;;;6.90;99.90;;;;;;5062484;28;20452;-76
2023/04/28 05:26:52;;;;;;;5.70;5.23;;;6.80;99.90;;;;;;5062723;28;20903;-75
2023/04/28 05:29:20;;;;;;;5.17;4.70;;;7.00;99.90;;;;;;5053789;28;20460;-75
2023/04/28 05:31:47;;;;;;;4.93;4.53;;;7.00;99.90;;;;;;5058109;28;20480;-76
2023/04/28 05:34:14;;;;;;;6.43;5.50;;;7.00;99.90;;;;;;5060168;28;20791;-76
2023/04/28 05:36:41;;;;;;;5.30;4.70;;;7.00;99.90;;;;;;5063411;28;20476;-75
2023/04/28 05:39:08;;;;;;;5.57;5.07;;;7.10;99.90;;;;;;5063929;28;20554;-75
2023/04/28 05:41:36;;;;;;;5.60;5.00;;;7.30;99.90;;;;;;5063610;28;20456;-75
2023/04/28 05:44:05;;;;;;;6.73;4.63;;;7.50;99.90;;;;;;5063610;28;20538;-81
2023/04/28 05:46:32;;;;;;;9.80;6.60;;;7.70;99.90;;;;;;5065085;28;20454;-76
2023/04/28 05:48:59;;;;;;;8.53;4.90;;;7.80;99.90;;;;;;5063532;28;21046;-76
2023/04/28 05:51:26;;;;;;;5.73;5.23;;;7.70;99.90;;;;;;5065226;28;20460;-75
2023/04/28 05:53:53;;;;;;;4.50;4.20;;;7.90;99.90;;;;;;5064699;28;20464;-78
2023/04/28 05:56:20;;;;;;;6.53;4.77;;;8.00;99.90;;;;;;5064221;28;20527;-76
2023/04/28 05:58:49;;;;;;;5.30;4.80;;;8.10;99.90;;;;;;5063973;28;20510;-78
2023/04/28 06:01:17;;;;;;;9.30;5.40;;;8.10;99.90;;;;;;5067601;28;20468;-76
2023/04/28 06:03:45;;;;;;;6.70;6.20;;;8.10;99.90;;;;;;5054802;28;20959;-76
2023/04/28 06:06:12;;;;;;;8.27;6.00;;;8.50;99.90;;;;;;5061857;28;20747;-76
2023/04/28 06:08:39;;;;;;;6.53;5.00;;;8.70;99.90;;;;;;5071561;28;20534;-77
2023/04/28 06:11:06;;;;;;;7.83;4.33;;;8.90;99.90;;;;;;5056956;28;20506;-74
2023/04/28 06:13:33;;;;;;;6.93;5.00;;;9.20;99.90;;;;;;5058739;28;21123;-76
2023/04/28 06:16:00;;;;;;;7.40;5.40;;;9.30;99.90;;;;;;5066920;28;20511;-76
2023/04/28 06:18:31;;;;;;;5.67;4.47;;;9.40;99.90;;;;;;5062434;28;20440;-75
2023/04/28 06:20:58;;;;;;;7.10;5.43;;;9.30;99.90;;;;;;5063884;28;20863;-78
2023/04/28 06:23:25;;;;;;;8.63;5.73;;;9.50;99.90;;;;;;5058570;28;20483;-76
2023/04/28 06:25:52;;;;;;;4.90;4.50;;;9.70;99.90;;;;;;5063573;28;21011;-76
2023/04/28 06:28:19;;;;;;;6.53;4.67;;;9.80;99.90;;;;;;5064762;28;20586;-76
2023/04/28 06:30:46;;;;;;;6.57;4.70;;;10.00;99.90;;;;;;5059253;28;20567;-78
2023/04/28 06:33:13;;;;;;;4.73;4.33;;;9.80;99.90;;;;;;5062178;28;20453;-79
2023/04/28 06:35:41;;;;;;;8.93;4.97;;;9.70;99.90;;;;;;5058952;28;20488;-76
2023/04/28 06:38:08;;;;;;;6.87;4.63;;;9.90;99.90;;;;;;5061984;28;20891;-80
2023/04/28 06:40:35;;;;;;;6.70;5.90;;;10.00;99.90;;;;;;5060237;28;20510;-76
2023/04/28 06:43:02;;;;;;;5.10;4.60;;;10.20;99.90;;;;;;5057611;28;20475;-76
2023/04/28 06:45:29;;;;;;;5.03;4.43;;;10.40;99.90;;;;;;5057764;28;20466;-77
2023/04/28 06:47:56;;;;;;;4.23;3.83;;;10.50;99.90;;;;;;5063948;28;20537;-75
2023/04/28 06:50:24;;;;;;;5.07;4.10;;;10.50;99.90;;;;;;5059299;28;20952;-73
2023/04/28 06:52:52;;;;;;;5.07;4.57;;;10.60;99.90;;;;;;5061525;28;20936;-74
2023/04/28 06:55:19;;;;;;;4.60;4.30;;;10.60;99.90;;;;;;5056397;28;20488;-76
2023/04/28 06:57:46;;;;;;;3.87;3.57;;;10.80;99.90;;;;;;5061398;28;21049;-78
2023/04/28 07:00:15;;;;;;;4.97;4.57;;;10.70;99.90;;;;;;5059967;28;20480;-79
2023/04/28 07:02:42;;;;;;;10.73;5.50;;;10.70;99.90;;;;;;5064536;28;20513;-76
2023/04/28 07:05:09;;;;;;;7.30;5.10;;;11.00;99.90;;;;;;5064844;28;20493;-79
2023/04/28 07:07:38;;;;;;;6.07;4.83;;;11.00;99.90;;;;;;5058143;28;20440;-76
2023/04/28 07:10:07;;;;;;;8.50;5.17;;;11.30;99.90;;;;;;5063431;28;20463;-75
2023/04/28 07:12:34;;;;;;;6.50;4.47;;;11.50;99.90;;;;;;5053345;28;20967;-75
2023/04/28 07:15:01;;;;;;;3.83;3.63;;;11.40;99.90;;;;;;5066516;28;21092;-76
2023/04/28 07:17:28;;;;;;;5.27;4.50;;;11.60;99.90;;;;;;5066962;28;21011;-76
2023/04/28 07:19:55;;;;;;;4.20;3.63;;;11.60;99.90;;;;;;5057478;28;20465;-76
2023/04/28 07:22:22;;;;;;;8.30;4.07;;;11.60;99.90;;;;;;5059618;28;20436;-80
2023/04/28 07:24:49;;;;;;;5.97;4.90;;;11.80;99.90;;;;;;5077528;28;20990;-75
2023/04/28 07:27:17;;;;;;;4.37;3.97;;;11.90;99.90;;;;;;5077915;28;21199;-75
2023/04/28 07:29:44;;;;;;;4.83;4.37;;;12.00;99.90;;;;;;5072076;28;20527;-76
2023/04/28 07:32:11;;;;;;;5.20;4.13;;;11.40;99.90;;;;;;5070642;28;21002;-75
2023/04/28 07:34:38;;;;;;;4.90;3.80;;;11.60;99.90;;;;;;5062838;28;20449;-75
2023/04/28 07:37:05;;;;;;;7.70;3.90;;;11.90;99.90;;;;;;5055744;28;20484;-77
2023/04/28 07:39:33;;;;;;;8.37;3.63;;;12.30;99.90;;;;;;5062799;28;20509;-76
2023/04/28 07:42:01;;;;;;;4.70;3.30;;;12.70;99.90;;;;;;5064207;28;20464;-76
2023/04/28 07:44:29;;;;;;;7.53;4.90;;;12.70;99.90;;;;;;5068528;28;20450;-76
2023/04/28 07:46:57;;;;;;;4.67;4.17;;;12.70;99.90;;;;;;5057679;28;20449;-76
2023/04/28 07:49:24;;;;;;;4.00;3.60;;;13.00;99.90;;;;;;5065419;28;20988;-77
2023/04/28 07:51:53;;;;;;;4.70;3.70;;;12.90;99.90;;;;;;5063704;28;20915;-76
2023/04/28 07:54:20;;;;;;;5.50;4.00;;;12.90;99.90;;;;;;5068449;28;20452;-77
2023/04/28 07:56:47;;;;;;;3.73;3.40;;;12.90;99.90;;;;;;5068487;28;20516;-77
2023/04/28 07:59:14;;;;;;;2.70;2.53;;;12.80;99.90;;;;;;5068934;28;20500;-76
2023/04/28 08:01:43;;;;;;;4.30;3.60;;;13.00;99.90;;;;;;5055945;28;20459;-76
2023/04/28 08:04:10;;;;;;;5.00;3.93;;;13.10;99.80;;;;;;5054394;28;20798;-76
2023/04/28 08:06:38;;;;;;;6.37;4.07;;;13.40;99.90;;;;;;5058118;28;20444;-80
2023/04/28 08:09:06;;;;;;;4.73;3.83;;;13.50;98.50;;;;;;5065054;28;20433;-76
2023/04/28 08:11:33;;;;;;;5.00;3.70;;;13.60;99.90;;;;;;5067526;28;20452;-76
2023/04/28 08:14:01;;;;;;;3.97;3.67;;;13.70;99.80;;;;;;5063207;28;20567;-76
2023/04/28 08:16:29;;;;;;;4.60;4.20;;;13.60;98.00;;;;;;5062383;28;20475;-77
2023/04/28 08:18:57;;;;;;;9.80;4.47;;;13.50;98.30;;;;;;5065993;28;20625;-76
2023/04/28 08:21:24;;;;;;;3.87;3.53;;;13.70;98.60;;;;;;5052495;28;20457;-76
2023/04/28 08:23:51;;;;;;;3.50;3.17;;;14.30;98.80;;;;;;5070172;28;20454;-76
2023/04/28 08:26:18;;;;;;;5.30;4.80;;;14.20;98.90;;;;;;5059421;28;20559;-76
2023/04/28 08:28:45;;;;;;;7.70;4.67;;;14.10;96.70;;;;;;5064497;28;20541;-77
2023/04/28 08:31:13;;;;;;;4.53;3.27;;;14.00;98.30;;;;;;5064087;28;20532;-76
2023/04/28 08:33:43;;;;;;;8.57;4.97;;;14.00;99.40;;;;;;5057169;28;20465;-77
2023/04/28 08:36:13;;;;;;;5.10;4.30;;;13.90;97.00;;;;;;5061563;28;20515;-77
2023/04/28 08:38:40;;;;;;;6.60;5.27;;;14.00;99.20;;;;;;5055691;28;20465;-76
2023/04/28 08:41:07;;;;;;;5.57;4.77;;;14.50;98.70;;;;;;5055419;28;20485;-77
2023/04/28 08:43:35;;;;;;;10.27;4.70;;;14.50;96.60;;;;;;5066029;28;20499;-79
2023/04/28 08:46:06;;;;;;;5.10;4.70;;;14.80;98.30;;;;;;5065965;28;21217;-77
2023/04/28 08:48:40;;;;;;;3.60;3.40;;;15.00;98.10;;;;;;5060135;28;20563;-81
2023/04/28 08:51:07;;;;;;;5.13;4.63;;;14.90;98.90;;;;;;5053359;28;20895;-76
2023/04/28 08:53:38;;;;;;;4.33;3.93;;;15.10;98.70;;;;;;5067536;28;21012;-76
2023/04/28 08:56:07;;;;;;;4.83;4.53;;;15.40;96.50;;;;;;5058047;28;20515;-77
2023/04/28 08:58:37;;;;;;;4.53;4.20;;;15.60;96.20;;;;;;5067090;28;20825;-77
2023/04/28 09:01:04;;;;;;;4.47;4.17;;;15.60;95.60;;;;;;5066651;28;20471;-77
2023/04/28 09:03:32;;;;;;;4.50;4.10;;;16.00;96.00;;;;;;5057594;28;20579;-80
2023/04/28 09:05:59;;;;;;;6.67;4.50;;;15.90;96.00;;;;;;5066867;28;21054;-76
2023/04/28 09:08:26;;;;;;;5.27;4.70;;;15.90;95.80;;;;;;5068264;28;20455;-77
2023/04/28 09:11:08;;;;;;;5.23;4.10;;;15.90;95.60;;;;;;5063846;28;20519;-78
2023/04/28 09:13:35;;;;;;;5.83;4.50;;;15.40;95.90;;;;;;5066808;28;20523;-77
2023/04/28 09:16:03;;;;;;;4.03;3.50;;;15.80;95.80;;;;;;5068067;28;20551;-76
2023/04/28 09:18:32;;;;;;;4.80;4.40;;;15.70;96.00;;;;;;5066930;28;20967;-78
2023/04/28 09:21:06;;;;;;;6.10;4.50;;;15.40;94.70;;;;;;5064946;28;20456;-77
2023/04/28 09:23:34;;;;;;;10.00;5.37;;;15.40;97.00;;;;;;5068698;28;20460;-77
2023/04/28 09:26:03;;;;;;;6.00;4.70;;;15.80;97.30;;;;;;5060663;28;20494;-80
2023/04/28 09:28:33;;;;;;;5.00;4.50;;;15.70;95.90;;;;;;5070213;28;20460;-80
2023/04/28 09:31:00;;;;;;;4.80;4.40;;;15.90;95.30;;;;;;5062991;28;20923;-75
2023/04/28 09:33:27;;;;;;;4.60;4.20;;;15.90;94.90;;;;;;5066018;28;20474;-76
2023/04/28 09:35:55;;;;;;;7.87;5.10;;;15.80;95.30;;;;;;5059785;28;20546;-77
2023/04/28 09:38:23;;;;;;;4.83;4.43;;;15.40;95.30;;;;;;5062009;28;20995;-76
2023/04/28 09:40:55;;;;;;;5.03;4.50;;;15.40;96.60;;;;;;5050769;28;20954;-76
2023/04/28 09:43:32;;;;;;;4.70;4.03;;;15.50;95.20;;;;;;5062766;28;20459;-79
2023/04/28 09:46:00;;;;;;;7.03;5.60;;;15.30;95.60;;;;;;5064403;28;20512;-78
2023/04/28 09:48:30;;;;;;;5.10;4.70;;;15.50;95.10;;;;;;5061469;28;20496;-78
2023/04/28 09:50:59;;;;;;;5.43;4.27;;;15.50;95.90;;;;;;5065663;28;20460;-78
2023/04/28 09:53:26;;;;;;;4.80;4.30;;;15.70;96.00;;;;;;5071227;28;21113;-78
2023/04/28 09:55:54;;;;;;;5.80;4.50;;;15.60;96.60;;;;;;5066355;28;20468;-76
2023/04/28 09:58:22;;;;;;;6.40;4.43;;;15.80;95.90;;;;;;5061109;28;21067;-79
2023/04/28 10:00:53;;;;;;;5.67;3.70;;;15.80;93.90;;;;;;5066478;28;21056;-77
2023/04/28 10:03:23;;;;;;;8.47;5.37;;;15.50;96.40;;;;;;5064504;28;20453;-78
2023/04/28 10:05:52;;;;;;;7.90;5.07;;;15.30;96.80;;;;;;5071917;28;21041;-77
2023/04/28 10:08:20;;;;;;;5.40;4.30;;;15.30;96.40;;;;;;5067631;28;20562;-76
2023/04/28 10:10:49;;;;;;;4.83;4.40;;;15.20;95.50;;;;;;5064528;28;20460;-79
2023/04/28 10:13:18;;;;;;;7.07;4.63;;;15.10;95.80;;;;;;5058520;28;20476;-77
2023/04/28 10:15:45;;;;;;;4.03;3.67;;;14.70;97.20;;;;;;5058931;28;20559;-78
2023/04/28 10:18:15;;;;;;;6.93;4.70;;;14.70;96.50;;;;;;5061878;28;20656;-78
2023/04/28 10:20:44;;;;;;;8.90;5.03;;;14.60;98.30;;;;;;5061493;28;20899;-77
2023/04/28 10:23:45;;;;;;;5.17;4.87;;;14.60;98.20;;;;;;5066212;28;20483;-77
2023/04/28 10:26:14;;;;;;;5.37;4.80;;;14.60;97.10;;;;;;5047526;28;20456;-76
2023/04/28 10:28:46;;;;;;;5.70;4.43;;;14.80;97.00;;;;;;5067463;28;20464;-80
2023/04/28 10:31:14;;;;;;;8.30;6.30;;;14.30;98.50;;;;;;5064229;28;20464;-77
2023/04/28 10:33:43;;;;;;;5.60;5.10;;;14.30;98.30;;;;;;5061197;28;20857;-81
2023/04/28 10:36:10;;;;;;;6.10;5.40;;;14.40;98.70;;;;;;5065544;28;20551;-78
2023/04/28 10:39:11;;;;;;;5.20;4.53;;;14.40;98.70;;;;;;5057030;28;20600;-78
2023/04/28 10:41:38;;;;;;;5.50;4.90;;;14.50;99.10;;;;;;5067117;28;20456;-77
2023/04/28 10:44:38;;;;;;;5.03;4.63;;;14.90;98.00;;;;;;5069990;28;20502;-76
2023/04/28 10:47:08;;;;;;;4.40;4.10;;;15.10;97.70;;;;;;5070182;28;20635;-75
2023/04/28 10:50:10;;;;;;;4.83;4.43;;;15.00;98.20;;;;;;5067605;28;20487;-77
2023/04/28 10:52:50;;;;;;;4.77;4.37;;;14.40;98.00;;;;;;5068633;28;20451;-77
2023/04/28 10:55:29;;;;;;;5.70;5.20;;;14.30;99.20;;;;;;5057079;28;20468;-80
2023/04/28 10:58:29;;;;;;;4.43;3.63;;;14.40;99.90;;;;;;5058330;28;20570;-77
2023/04/28 11:01:28;;;;;;;5.80;5.23;;;14.50;99.90;;;;;;5065821;28;20441;-81
2023/04/28 11:04:01;;;;;;;6.03;5.53;;;14.40;98.70;;;;;;5058836;28;20540;-81
2023/04/28 11:06:30;;;;;;;6.53;5.07;;;14.40;98.20;;;;;;5060658;28;20458;-76
2023/04/28 11:08:59;;;;;;;4.67;4.07;;;14.50;99.10;;;;;;5065507;28;20531;-75
2023/04/28 11:11:26;;;;;;;7.57;4.67;;;14.50;97.80;;;;;;5058884;28;20484;-76
2023/04/28 11:13:55;;;;;;;4.80;4.30;;;14.50;99.40;;;;;;5057029;28;20452;-80
2023/04/28 11:16:24;;;;;;;9.17;4.90;;;14.50;99.90;;;;;;5064138;28;20880;-77
2023/04/28 11:18:56;;;;;;;6.03;5.07;;;14.40;99.80;;;;;;5066178;28;20533;-75
2023/04/28 11:21:24;;;;;;;5.37;4.87;;;14.20;99.40;;;;;;5066977;28;20438;-76
2023/04/28 11:23:52;;;;;;;6.90;6.20;;;14.40;99.80;;;;;;5061993;28;20449;-77
2023/04/28 11:26:19;;;;;;;6.20;5.40;;;14.60;98.70;;;;;;5063920;28;20432;-76
2023/04/28 11:28:54;;;;;;;6.63;4.30;;;14.70;99.00;;;;;;5065607;28;21090;-77
2023/04/28 11:31:23;;;;;;;4.70;4.30;;;14.80;98.70;;;;;;5065109;28;20444;-76
2023/04/28 11:34:03;;;;;;;4.53;3.80;;;14.80;98.60;;;;;;5064431;28;20452;-78
2023/04/28 11:36:34;;;;;;;4.80;4.37;;;14.50;99.00;;;;;;5063482;28;20432;-76
2023/04/28 11:39:02;;;;;;;5.40;4.63;;;14.40;98.70;;;;;;5064504;28;21194;-77
2023/04/28 11:41:31;;;;;;;6.27;5.60;;;14.30;99.40;;;;;;5048661;28;20973;-77
2023/04/28 11:43:58;;;;;;;8.30;7.60;;;14.20;99.30;;;;;;5063579;28;20512;-76
2023/04/28 11:46:26;;;;;;;5.93;5.43;;;14.20;99.90;;;;;;5054603;28;20436;-79
2023/04/28 11:49:04;;;;;;;5.70;5.20;;;14.20;99.90;;;;;;5059793;28;20558;-76
2023/04/28 11:51:37;;;;;;;6.40;5.80;;;14.10;99.90;;;;;;5050005;28;20498;-78
2023/04/28 11:54:06;;;;;;;6.90;5.17;;;14.10;99.90;;;;;;5052814;28;20469;-76
2023/04/28 11:56:37;;;;;;;6.40;5.90;;;14.10;99.90;;;;;;5045596;28;20480;-79
2023/04/28 11:59:07;;;;;;;6.80;6.20;;;14.00;99.90;;;;;;5063474;28;20480;-78
2023/04/28 12:01:36;;;;;;;6.43;5.80;;;14.00;99.90;;;;;;5052422;28;20813;-76
2023/04/28 12:04:04;;;;;;;7.67;6.90;;;14.00;99.90;;;;;;5056244;28;20461;-76
2023/04/28 12:06:32;;;;;;;6.13;5.63;;;13.90;99.90;;;;;;5057343;28;20919;-75
2023/04/28 12:09:03;;;;;;;8.97;5.87;;;13.90;99.90;;;;;;5053446;28;20449;-76
2023/04/28 12:11:31;;;;;;;6.00;5.40;;;14.00;99.90;;;;;;5059122;28;20880;-75
2023/04/28 12:14:05;;;;;;;6.27;5.67;;;14.00;99.90;;;;;;5052956;28;20452;-76
2023/04/28 12:16:42;;;;;;;5.80;5.30;;;14.00;99.90;;;;;;5063027;28;20468;-76
2023/04/28 12:19:11;;;;;;;7.43;6.70;;;13.80;99.90;;;;;;5062779;28;20495;-76
2023/04/28 12:21:39;;;;;;;6.60;5.53;;;13.80;99.90;;;;;;5065222;28;20765;-77
2023/04/28 12:24:17;;;;;;;5.90;5.30;;;13.60;99.90;;;;;;5065125;28;20462;-76
2023/04/28 12:26:44;;;;;;;6.73;6.00;;;13.40;99.90;;;;;;5065926;28;20501;-77
2023/04/28 12:29:40;;;;;;;5.87;5.17;;;13.40;99.90;;;;;;5064891;28;20440;-76
2023/04/28 12:32:08;;;;;;;7.03;6.33;;;13.20;99.90;;;;;;5065410;28;20497;-78
2023/04/28 12:34:38;;;;;;;6.07;5.60;;;13.10;99.90;;;;;;5065161;28;20890;-77
2023/04/28 12:37:06;;;;;;;6.47;5.90;;;13.20;99.90;;;;;;5066451;28;20484;-77
2023/04/28 12:39:33;;;;;;;6.70;6.10;;;13.30;99.90;;;;;;5068981;28;21120;-77
2023/04/28 12:42:01;;;;;;;8.33;6.53;;;13.30;99.90;;;;;;5067590;28;20528;-77
2023/04/28 12:44:28;;;;;;;6.70;6.20;;;13.30;99.90;;;;;;5069016;28;20539;-76
2023/04/28 12:46:55;;;;;;;6.57;5.97;;;13.40;99.90;;;;;;5067546;28;20452;-77
2023/04/28 12:49:23;;;;;;;11.53;7.23;;;13.30;99.90;;;;;;5068275;28;20453;-77
2023/04/28 12:51:51;;;;;;;6.97;6.30;;;13.30;99.90;;;;;;5069670;28;20524;-80
2023/04/28 12:54:18;;;;;;;12.97;7.33;;;13.20;99.90;;;;;;5068627;28;20502;-79
2023/04/28 12:56:45;;;;;;;7.53;6.93;;;13.20;99.90;;;;;;5068169;28;20510;-77